createdAt,value
2022-08-19T00:00:10.762Z,42.20
2022-08-19T00:02:38.830Z,41.70
2022-08-19T00:05:20.386Z,41.60
2022-08-19T00:07:49.943Z,40.50
2022-08-19T00:10:19.016Z,39.80
2022-08-19T00:12:47.246Z,39.90
2022-08-19T00:15:19.323Z,39.40
2022-08-19T00:17:50.397Z,38.40
2022-08-19T00:20:22.237Z,38.50
2022-08-19T00:22:50.501Z,38.20
2022-08-19T00:25:18.522Z,37.60
2022-08-19T00:28:00.519Z,37.70
2022-08-19T00:30:31.599Z,37.60
2022-08-19T00:33:00.102Z,37.40
2022-08-19T00:35:28.646Z,37.50
2022-08-19T00:37:57.536Z,37.90
2022-08-19T00:40:26.635Z,37.30
2022-08-19T00:42:55.197Z,37.20
2022-08-19T00:45:25.644Z,37.30
2022-08-19T00:47:53.742Z,37.20
2022-08-19T00:50:22.848Z,38.20
2022-08-19T00:52:52.676Z,41.00
2022-08-19T00:55:25.398Z,40.90
2022-08-19T00:58:12.483Z,40.70
2022-08-19T01:00:40.424Z,41.30
2022-08-19T01:03:11.217Z,41.30
2022-08-19T01:05:41.278Z,42.40
2022-08-19T01:08:09.655Z,42.80
2022-08-19T01:11:04.167Z,43.20
2022-08-19T01:13:49.235Z,43.20
2022-08-19T01:16:20.905Z,44.00
2022-08-19T01:18:49.428Z,45.00
2022-08-19T01:21:22.901Z,44.50
2022-08-19T01:23:52.104Z,44.50
2022-08-19T01:26:22.928Z,44.30
2022-08-19T01:28:59.639Z,44.30
2022-08-19T01:31:33.610Z,45.00
2022-08-19T01:34:02.963Z,44.80
2022-08-19T01:36:38.578Z,44.20
2022-08-19T01:39:11.558Z,43.70
2022-08-19T01:41:39.767Z,42.40
2022-08-19T01:44:18.483Z,41.40
2022-08-19T01:46:49.664Z,41.00
2022-08-19T01:49:19.785Z,40.70
2022-08-19T01:51:48.562Z,40.80
2022-08-19T01:54:23.458Z,40.00
2022-08-19T01:57:02.778Z,40.20
2022-08-19T01:59:32.928Z,39.60
2022-08-19T02:02:01.136Z,38.80
2022-08-19T02:04:28.982Z,39.00
2022-08-19T02:06:56.983Z,38.50
2022-08-19T02:09:24.807Z,38.00
2022-08-19T02:11:52.848Z,39.60
2022-08-19T02:14:20.962Z,39.90
2022-08-19T02:16:49.278Z,40.40
2022-08-19T02:19:17.139Z,40.50
2022-08-19T02:21:45.952Z,40.90
2022-08-19T02:24:13.865Z,40.70
2022-08-19T02:26:41.910Z,40.50
2022-08-19T02:29:11.808Z,41.60
2022-08-19T02:31:39.978Z,41.40
2022-08-19T02:34:07.933Z,40.70
2022-08-19T02:36:36.030Z,41.20
2022-08-19T02:39:11.030Z,40.60
2022-08-19T02:41:39.167Z,40.90
2022-08-19T02:44:29.391Z,41.70
2022-08-19T02:46:57.187Z,42.60
2022-08-19T02:49:24.987Z,43.10
2022-08-19T02:51:53.218Z,43.20
2022-08-19T02:54:21.227Z,43.90
2022-08-19T02:56:49.213Z,44.40
2022-08-19T02:59:17.086Z,44.70
2022-08-19T03:01:45.281Z,45.70
2022-08-19T03:04:15.188Z,46.80
2022-08-19T03:06:46.642Z,46.60
2022-08-19T03:09:16.015Z,46.60
2022-08-19T03:11:43.911Z,47.70
2022-08-19T03:14:12.434Z,47.10
2022-08-19T03:16:53.668Z,45.90
2022-08-19T03:19:25.044Z,46.50
2022-08-19T03:21:53.399Z,47.10
2022-08-19T03:24:21.622Z,47.10
2022-08-19T03:26:53.407Z,47.00
2022-08-19T03:29:30.305Z,48.30
2022-08-19T03:32:04.808Z,48.10
2022-08-19T03:34:35.518Z,47.70
2022-08-19T03:37:08.168Z,47.00
2022-08-19T03:39:38.816Z,48.40
2022-08-19T03:42:31.723Z,48.90
2022-08-19T03:44:55.275Z,48.90
2022-08-19T03:47:23.139Z,48.90
2022-08-19T03:49:51.472Z,46.10
2022-08-19T03:52:19.381Z,43.90
2022-08-19T03:54:47.458Z,43.90
2022-08-19T03:57:15.345Z,43.60
2022-08-19T03:59:43.698Z,42.30
2022-08-19T04:02:13.694Z,41.50
2022-08-19T04:04:44.633Z,41.80
2022-08-19T04:07:17.474Z,41.90
2022-08-19T04:09:46.036Z,41.20
2022-08-19T04:12:14.084Z,40.90
2022-08-19T04:14:42.726Z,41.50
2022-08-19T04:17:10.662Z,41.10
2022-08-19T04:19:39.814Z,40.50
2022-08-19T04:22:08.437Z,40.50
2022-08-19T04:24:37.352Z,41.00
2022-08-19T04:27:07.367Z,40.60
2022-08-19T04:29:35.578Z,40.40
2022-08-19T04:32:08.428Z,41.00
2022-08-19T04:35:02.297Z,41.40
2022-08-19T04:37:34.996Z,40.80
2022-08-19T04:40:25.607Z,40.80
2022-08-19T04:42:54.877Z,41.70
2022-08-19T04:45:23.381Z,41.30
2022-08-19T04:47:58.197Z,40.60
2022-08-19T04:50:31.275Z,41.10
2022-08-19T04:52:59.263Z,41.70
2022-08-19T04:55:27.283Z,41.30
2022-08-19T04:57:56.061Z,41.00
2022-08-19T05:00:24.289Z,41.50
2022-08-19T05:02:52.421Z,42.00
2022-08-19T05:05:21.327Z,41.70
2022-08-19T05:07:49.322Z,41.30
2022-08-19T05:10:17.316Z,41.90
2022-08-19T05:12:45.423Z,42.70
2022-08-19T05:15:13.483Z,42.50
2022-08-19T05:18:01.841Z,42.20
2022-08-19T05:20:48.026Z,42.60
2022-08-19T05:23:20.443Z,43.20
2022-08-19T05:25:48.690Z,43.10
2022-08-19T05:28:16.787Z,42.80
2022-08-19T05:30:47.584Z,43.40
2022-08-19T05:33:16.114Z,42.80
2022-08-19T05:35:45.348Z,42.60
2022-08-19T05:38:14.284Z,43.10
2022-08-19T05:40:42.751Z,44.80
2022-08-19T05:43:10.795Z,46.60
2022-08-19T05:45:43.517Z,47.10
2022-08-19T05:48:13.283Z,46.80
2022-08-19T05:50:43.136Z,47.70
2022-08-19T05:53:11.337Z,49.00
2022-08-19T05:55:40.147Z,49.70
2022-08-19T05:58:11.242Z,50.20
2022-08-19T06:00:39.639Z,51.00
2022-08-19T06:03:11.399Z,52.10
2022-08-19T06:05:44.730Z,52.10
2022-08-19T06:08:21.171Z,51.90
2022-08-19T06:11:34.104Z,52.50
2022-08-19T06:14:05.289Z,53.10
2022-08-19T06:16:36.467Z,54.00
2022-08-19T06:19:08.459Z,54.00
2022-08-19T06:21:38.971Z,56.40
2022-08-19T06:24:09.039Z,57.40
2022-08-19T06:26:39.444Z,55.70
2022-08-19T06:29:09.375Z,55.80
2022-08-19T06:31:38.180Z,55.80
2022-08-19T06:34:07.462Z,56.10
2022-08-19T06:36:38.968Z,55.40
2022-08-19T06:39:11.201Z,55.30
2022-08-19T06:41:47.618Z,55.50
2022-08-19T06:44:24.998Z,56.50
2022-08-19T06:46:55.171Z,55.90
2022-08-19T06:49:24.807Z,54.50
2022-08-19T06:51:52.808Z,55.00
2022-08-19T06:54:21.362Z,55.30
2022-08-19T06:56:49.573Z,54.50
2022-08-19T06:59:20.655Z,53.60
2022-08-19T07:01:52.247Z,54.30
2022-08-19T07:04:22.696Z,56.00
2022-08-19T07:06:58.335Z,55.40
2022-08-19T07:09:27.704Z,54.20
2022-08-19T07:11:59.233Z,54.80
2022-08-19T07:14:29.350Z,56.00
2022-08-19T07:16:58.564Z,56.20
2022-08-19T07:19:28.808Z,56.00
2022-08-19T07:21:57.588Z,56.50
2022-08-19T07:24:26.692Z,57.10
2022-08-19T07:27:04.115Z,56.70
2022-08-19T07:29:39.230Z,56.10
2022-08-19T07:32:07.707Z,57.50
2022-08-19T07:34:41.578Z,58.80
2022-08-19T07:37:11.358Z,57.70
2022-08-19T07:39:40.774Z,56.60
2022-08-19T07:42:13.469Z,58.10
2022-08-19T07:44:49.872Z,56.00
2022-08-19T07:47:47.967Z,55.90
2022-08-19T07:50:12.730Z,56.80
2022-08-19T07:52:41.836Z,56.00
2022-08-19T07:55:41.999Z,55.60
2022-08-19T07:57:59.923Z,56.70
2022-08-19T08:04:33.910Z,56.40
2022-08-19T08:07:20.711Z,57.20
2022-08-19T08:09:49.638Z,58.10
2022-08-19T08:12:35.097Z,59.30
2022-08-19T08:15:12.440Z,59.60
2022-08-19T08:17:49.530Z,59.30
2022-08-19T08:20:19.632Z,60.10
2022-08-19T08:23:07.420Z,61.50
2022-08-19T08:25:38.104Z,62.00
2022-08-19T08:28:06.748Z,61.80
2022-08-19T08:30:37.336Z,62.20
2022-08-19T08:33:05.643Z,61.90
2022-08-19T08:35:34.827Z,61.30
2022-08-19T08:38:06.000Z,61.80
2022-08-19T08:40:43.696Z,61.90
2022-08-19T08:43:36.382Z,61.90
2022-08-19T08:46:43.242Z,61.90
2022-08-19T08:49:21.934Z,60.80
2022-08-19T08:52:00.081Z,60.80
2022-08-19T08:54:36.423Z,59.40
2022-08-19T08:57:10.961Z,59.80
2022-08-19T08:59:43.476Z,60.00
2022-08-19T09:02:11.631Z,59.80
2022-08-19T09:04:40.338Z,59.40
2022-08-19T09:07:38.022Z,60.00
2022-08-19T09:10:29.717Z,59.90
2022-08-19T09:13:16.351Z,59.70
2022-08-19T09:16:06.278Z,60.40
2022-08-19T09:18:55.979Z,60.80
2022-08-19T09:21:30.342Z,63.50
2022-08-19T09:24:06.008Z,64.20
2022-08-19T09:26:47.318Z,63.80
2022-08-19T09:29:22.812Z,62.30
2022-08-19T09:31:51.457Z,61.50
2022-08-19T09:34:22.156Z,61.70
2022-08-19T09:36:55.967Z,61.50
2022-08-19T09:39:24.201Z,61.60
2022-08-19T09:41:52.013Z,61.10
2022-08-19T09:44:21.990Z,60.50
2022-08-19T09:46:50.244Z,60.40
2022-08-19T09:49:20.133Z,59.90
2022-08-19T09:51:52.634Z,60.00
2022-08-19T09:54:23.661Z,59.80
2022-08-19T09:56:54.606Z,60.00
2022-08-19T09:59:22.791Z,59.20
2022-08-19T10:01:51.028Z,59.00
2022-08-19T10:04:20.581Z,60.10
2022-08-19T10:06:53.951Z,60.00
2022-08-19T10:09:33.583Z,61.10
2022-08-19T10:12:04.435Z,61.90
2022-08-19T10:14:35.067Z,63.10
2022-08-19T10:17:04.577Z,64.00
2022-08-19T10:19:55.086Z,63.50
2022-08-19T10:22:25.459Z,64.80
2022-08-19T10:24:54.795Z,64.20
2022-08-19T10:27:23.328Z,63.60
2022-08-19T10:29:51.532Z,62.00
2022-08-19T10:32:19.631Z,61.70
2022-08-19T10:35:09.681Z,60.60
2022-08-19T10:37:52.658Z,60.20
2022-08-19T10:40:28.053Z,58.70
2022-08-19T10:42:57.190Z,57.60
2022-08-19T10:45:28.128Z,57.70
2022-08-19T10:47:57.046Z,57.10
2022-08-19T10:50:43.292Z,56.00
2022-08-19T10:53:11.578Z,55.40
2022-08-19T10:55:58.157Z,55.10
2022-08-19T10:58:27.737Z,54.40
2022-08-19T11:01:00.347Z,54.70
2022-08-19T11:03:32.121Z,54.00
2022-08-19T11:06:08.040Z,53.30
2022-08-19T11:08:39.107Z,52.60
2022-08-19T11:11:09.154Z,52.60
2022-08-19T11:13:40.052Z,52.20
2022-08-19T11:16:17.864Z,52.30
2022-08-19T11:18:51.969Z,52.60
2022-08-19T11:21:26.845Z,52.20
2022-08-19T11:23:59.257Z,53.00
2022-08-19T11:26:28.432Z,52.20
2022-08-19T11:28:57.016Z,51.60
2022-08-19T11:31:32.246Z,51.70
2022-08-19T11:34:03.004Z,51.80
2022-08-19T11:36:32.992Z,53.30
2022-08-19T11:39:01.247Z,54.80
2022-08-19T11:41:29.692Z,55.50
2022-08-19T11:43:58.214Z,53.50
2022-08-19T11:46:28.864Z,52.80
2022-08-19T11:49:02.393Z,52.00
2022-08-19T11:51:32.961Z,51.20
2022-08-19T11:54:02.808Z,51.30
2022-08-19T11:56:30.857Z,50.60
2022-08-19T11:58:59.198Z,46.90
2022-08-19T12:01:28.259Z,47.40
2022-08-19T12:03:57.852Z,47.70
2022-08-19T12:06:30.017Z,46.60
2022-08-19T12:09:03.965Z,44.90
2022-08-19T12:11:34.650Z,44.00
2022-08-19T12:14:03.398Z,45.00
2022-08-19T12:16:34.549Z,44.40
2022-08-19T12:19:06.922Z,45.40
2022-08-19T12:21:37.202Z,46.40
2022-08-19T12:24:06.749Z,44.40
2022-08-19T12:26:36.001Z,44.70
2022-08-19T12:29:23.930Z,44.50
2022-08-19T12:31:53.273Z,45.10
2022-08-19T12:34:22.474Z,44.50
2022-08-19T12:36:50.738Z,46.90
2022-08-19T12:39:19.012Z,47.00
2022-08-19T12:41:54.327Z,46.30
2022-08-19T12:44:29.573Z,43.30
2022-08-19T12:47:01.010Z,46.20
2022-08-19T12:49:52.189Z,44.30
2022-08-19T12:52:28.533Z,44.40
2022-08-19T12:54:58.540Z,45.70
2022-08-19T12:57:32.866Z,44.00
2022-08-19T13:00:13.782Z,45.90
2022-08-19T13:02:47.968Z,48.20
2022-08-19T13:05:21.177Z,47.80
2022-08-19T13:07:49.962Z,47.00
2022-08-19T13:10:20.954Z,49.20
2022-08-19T13:12:53.092Z,49.20
2022-08-19T13:15:24.262Z,51.60
2022-08-19T13:17:55.137Z,53.20
2022-08-19T13:20:24.313Z,52.50
2022-08-19T13:22:52.840Z,51.70
2022-08-19T13:25:21.386Z,49.30
2022-08-19T13:27:52.110Z,49.70
2022-08-19T13:30:40.464Z,51.80
2022-08-19T13:33:17.692Z,53.00
2022-08-19T13:35:58.357Z,53.20
2022-08-19T13:38:26.805Z,54.30
2022-08-19T13:40:56.986Z,55.80
2022-08-19T13:43:28.099Z,56.60
2022-08-19T13:45:58.870Z,55.80
2022-08-19T13:48:30.242Z,59.70
2022-08-19T13:50:58.628Z,61.60
2022-08-19T13:53:26.708Z,62.60
2022-08-19T13:55:55.445Z,64.70
2022-08-19T13:58:24.075Z,67.30
2022-08-19T14:00:52.605Z,67.30
2022-08-19T14:03:20.497Z,66.20
2022-08-19T14:05:48.495Z,66.40
2022-08-19T14:08:16.583Z,65.70
2022-08-19T14:10:48.560Z,64.90
2022-08-19T14:13:19.772Z,64.00
2022-08-19T14:15:48.970Z,62.90
2022-08-19T14:18:20.717Z,63.80
2022-08-19T14:20:48.820Z,61.90
2022-08-19T14:23:16.868Z,63.20
2022-08-19T14:25:45.701Z,63.30
2022-08-19T14:28:13.640Z,59.90
2022-08-19T14:30:41.746Z,58.80
2022-08-19T14:33:09.792Z,60.00
2022-08-19T14:35:38.364Z,58.50
2022-08-19T14:38:08.627Z,59.10
2022-08-19T14:40:36.685Z,59.40
2022-08-19T14:43:05.833Z,61.90
2022-08-19T14:45:37.212Z,60.30
2022-08-19T14:48:19.137Z,58.80
2022-08-19T14:50:47.896Z,61.40
2022-08-19T14:53:18.270Z,60.70
2022-08-19T14:55:48.178Z,63.70
2022-08-19T14:58:28.888Z,65.60
2022-08-19T15:01:00.746Z,64.80
2022-08-19T15:03:29.926Z,64.50
2022-08-19T15:05:59.038Z,66.50
2022-08-19T15:08:28.100Z,69.00
2022-08-19T15:10:56.703Z,70.10
2022-08-19T15:13:25.943Z,72.20
2022-08-19T15:15:54.024Z,72.40
2022-08-19T15:18:22.991Z,72.90
2022-08-19T15:20:52.168Z,72.90
2022-08-19T15:23:22.525Z,72.60
2022-08-19T15:25:54.804Z,69.50
2022-08-19T15:28:24.427Z,69.40
2022-08-19T15:30:53.323Z,68.30
2022-08-19T15:33:21.806Z,67.60
2022-08-19T15:35:51.950Z,67.40
2022-08-19T15:38:22.803Z,63.40
2022-08-19T15:40:51.515Z,63.10
2022-08-19T15:43:22.612Z,63.00
2022-08-19T15:45:50.619Z,62.80
2022-08-19T15:48:18.650Z,63.00
2022-08-19T15:50:46.782Z,62.90
2022-08-19T15:53:14.713Z,63.40
2022-08-19T15:55:46.366Z,67.20
2022-08-19T15:58:34.384Z,69.00
2022-08-19T16:01:24.233Z,72.00
2022-08-19T16:04:14.831Z,74.90
2022-08-19T16:06:49.924Z,76.10
2022-08-19T16:09:23.653Z,77.30
2022-08-19T16:12:04.250Z,77.70
2022-08-19T16:14:35.803Z,78.60
2022-08-19T16:17:04.967Z,79.30
2022-08-19T16:19:33.820Z,79.50
2022-08-19T16:22:01.833Z,78.90
2022-08-19T16:24:30.284Z,79.50
2022-08-19T16:26:58.428Z,81.20
2022-08-19T16:29:33.343Z,81.00
2022-08-19T16:32:13.227Z,80.70
2022-08-19T16:34:42.684Z,81.20
2022-08-19T16:37:11.469Z,81.00
2022-08-19T16:39:40.069Z,81.60
2022-08-19T16:42:09.131Z,81.30
2022-08-19T16:44:42.863Z,80.30
2022-08-19T16:47:11.320Z,82.20
2022-08-19T16:49:53.100Z,84.00
2022-08-19T16:52:27.679Z,84.10
2022-08-19T16:54:55.817Z,83.30
2022-08-19T16:57:24.417Z,84.10
2022-08-19T16:59:52.870Z,83.20
2022-08-19T17:02:25.579Z,83.20
2022-08-19T17:04:59.459Z,83.40
2022-08-19T17:07:33.632Z,86.20
2022-08-19T17:10:03.638Z,87.50
2022-08-19T17:12:32.512Z,88.70
2022-08-19T17:15:05.197Z,88.40
2022-08-19T17:17:33.103Z,89.10
2022-08-19T17:20:03.246Z,90.20
2022-08-19T17:22:31.617Z,90.30
2022-08-19T17:24:59.542Z,90.60
2022-08-19T17:27:32.535Z,90.30
2022-08-19T17:30:03.098Z,90.40
2022-08-19T17:32:35.966Z,90.70
2022-08-19T17:35:05.161Z,91.00
2022-08-19T17:37:33.224Z,91.30
2022-08-19T17:40:03.370Z,91.60
2022-08-19T17:42:32.626Z,91.70
2022-08-19T17:45:05.931Z,92.10
2022-08-19T17:47:37.150Z,92.70
2022-08-19T17:50:10.274Z,93.10
2022-08-19T17:52:38.561Z,93.80
2022-08-19T17:55:07.888Z,94.10
2022-08-19T17:57:35.851Z,94.20
2022-08-19T18:00:04.856Z,94.30
2022-08-19T18:02:45.303Z,94.90
2022-08-19T18:05:14.339Z,95.30
2022-08-19T18:07:44.621Z,95.60
2022-08-19T18:10:13.130Z,95.90
2022-08-19T18:12:41.068Z,96.00
2022-08-19T18:15:10.164Z,96.00
2022-08-19T18:17:38.489Z,96.00
2022-08-19T18:20:12.158Z,95.50
2022-08-19T18:22:43.953Z,95.60
2022-08-19T18:25:23.018Z,95.40
2022-08-19T18:27:56.630Z,95.10
2022-08-19T18:30:26.675Z,94.70
2022-08-19T18:32:55.260Z,94.80
2022-08-19T18:35:30.215Z,94.70
2022-08-19T18:38:02.148Z,95.10
2022-08-19T18:40:48.938Z,95.30
2022-08-19T18:43:34.905Z,95.40
2022-08-19T18:46:21.327Z,95.50
2022-08-19T18:49:06.900Z,95.60
2022-08-19T18:51:35.196Z,96.00
2022-08-19T18:54:03.839Z,96.10
2022-08-19T18:56:32.638Z,96.20
2022-08-19T18:59:01.476Z,96.50
2022-08-19T19:01:37.069Z,96.50
2022-08-19T19:04:12.453Z,96.60
2022-08-19T19:06:43.015Z,96.40
2022-08-19T19:09:14.701Z,96.20
2022-08-19T19:11:46.492Z,96.40
2022-08-19T19:14:32.733Z,96.50
2022-08-19T19:17:11.549Z,96.70
2022-08-19T19:19:43.158Z,96.80
2022-08-19T19:22:15.361Z,97.20
2022-08-19T19:24:46.349Z,96.00
2022-08-19T19:27:16.590Z,95.50
2022-08-19T19:29:51.097Z,95.20
2022-08-19T19:32:25.305Z,94.60
2022-08-19T19:34:53.481Z,94.00
2022-08-19T19:37:22.804Z,93.80
2022-08-19T19:39:50.810Z,92.50
2022-08-19T19:42:21.594Z,92.10
2022-08-19T19:44:51.761Z,90.70
2022-08-19T19:47:21.911Z,90.30
2022-08-19T19:50:13.367Z,88.30
2022-08-19T19:52:41.802Z,87.90
2022-08-19T19:55:10.328Z,86.30
2022-08-19T19:57:39.607Z,86.60
2022-08-19T20:00:09.357Z,85.60
2022-08-19T20:02:37.301Z,85.80
2022-08-19T20:05:05.883Z,84.70
2022-08-19T20:07:52.404Z,85.20
2022-08-19T20:10:20.464Z,84.20
2022-08-19T20:12:48.443Z,84.50
2022-08-19T20:15:16.504Z,84.60
2022-08-19T20:17:44.565Z,84.20
2022-08-19T20:20:15.226Z,84.70
2022-08-19T20:22:47.773Z,84.90
2022-08-19T20:25:17.742Z,84.60
2022-08-19T20:27:50.932Z,84.30
2022-08-19T20:30:21.475Z,83.50
2022-08-19T20:32:51.529Z,83.40
2022-08-19T20:35:21.981Z,83.60
2022-08-19T20:37:53.846Z,83.70
2022-08-19T20:40:26.094Z,83.60
2022-08-19T20:42:54.648Z,83.40
2022-08-19T20:45:33.578Z,82.80
2022-08-19T20:48:03.804Z,82.70
2022-08-19T20:50:33.883Z,82.50
2022-08-19T20:53:03.011Z,82.30
2022-08-19T20:55:31.060Z,82.30
2022-08-19T20:57:59.581Z,82.80
2022-08-19T21:00:29.590Z,82.70
2022-08-19T21:02:57.914Z,82.10
2022-08-19T21:05:30.247Z,82.50
2022-08-19T21:07:59.188Z,82.70
2022-08-19T21:10:28.350Z,82.70
2022-08-19T21:12:56.822Z,82.70
2022-08-19T21:15:25.136Z,82.50
2022-08-19T21:17:53.077Z,82.50
2022-08-19T21:20:21.028Z,82.50
2022-08-19T21:22:51.884Z,82.10
2022-08-19T21:25:19.783Z,82.10
2022-08-19T21:27:47.659Z,82.30
2022-08-19T21:30:15.887Z,82.40
2022-08-19T21:32:43.953Z,82.50
2022-08-19T21:35:13.019Z,82.40
2022-08-19T21:37:41.013Z,82.50
2022-08-19T21:40:09.763Z,81.70
2022-08-19T21:42:40.076Z,80.20
2022-08-19T21:45:09.006Z,78.70
2022-08-19T21:47:37.053Z,76.90
2022-08-19T21:50:06.427Z,74.70
2022-08-19T21:52:35.086Z,72.90
2022-08-19T21:55:03.200Z,71.40
2022-08-19T21:57:31.215Z,69.90
2022-08-19T21:59:59.233Z,68.50
2022-08-19T22:02:28.491Z,67.60
2022-08-19T22:04:56.534Z,66.60
2022-08-19T22:07:25.327Z,66.60
2022-08-19T22:09:53.196Z,65.70
2022-08-19T22:12:25.565Z,64.90
2022-08-19T22:14:54.885Z,64.80
2022-08-19T22:17:23.304Z,64.20
2022-08-19T22:19:52.832Z,64.00
2022-08-19T22:22:24.468Z,64.10
2022-08-19T22:24:53.738Z,64.00
2022-08-19T22:27:21.993Z,64.50
2022-08-19T22:29:52.545Z,64.40
2022-08-19T22:32:27.015Z,66.90
2022-08-19T22:35:00.257Z,67.10
2022-08-19T22:37:32.505Z,67.30
2022-08-19T22:40:05.718Z,68.90
2022-08-19T22:42:34.162Z,69.10
2022-08-19T22:45:01.958Z,68.50
2022-08-19T22:47:32.248Z,69.60
2022-08-19T22:50:02.738Z,69.50
2022-08-19T22:52:32.403Z,68.40
2022-08-19T22:55:02.716Z,68.50
2022-08-19T22:57:30.721Z,69.50
2022-08-19T23:00:01.242Z,68.30
2022-08-19T23:02:33.946Z,68.10
2022-08-19T23:05:03.982Z,69.10
2022-08-19T23:07:32.152Z,68.30
2022-08-19T23:10:00.160Z,67.40
2022-08-19T23:12:35.023Z,68.90
2022-08-19T23:15:09.528Z,68.10
2022-08-19T23:17:41.037Z,67.50
2022-08-19T23:20:14.732Z,68.60
2022-08-19T23:22:44.931Z,68.60
2022-08-19T23:25:19.879Z,67.80
2022-08-19T23:28:06.172Z,68.60
2022-08-19T23:30:37.968Z,69.30
2022-08-19T23:33:16.369Z,68.70
2022-08-19T23:35:44.845Z,69.30
2022-08-19T23:38:12.728Z,69.50
2022-08-19T23:40:41.272Z,69.50
2022-08-19T23:43:09.872Z,69.50
2022-08-19T23:45:39.867Z,70.20
2022-08-19T23:48:10.612Z,69.50
2022-08-19T23:50:42.951Z,69.80
2022-08-19T23:53:13.254Z,70.90
2022-08-19T23:55:45.362Z,70.80
2022-08-19T23:58:15.267Z,70.30
